createdAt,value
2023-03-21T00:01:00.197Z,8.80
2023-03-21T00:04:22.392Z,8.80
2023-03-21T00:07:44.015Z,8.70
2023-03-21T00:11:06.419Z,8.80
2023-03-21T00:14:28.221Z,8.70
2023-03-21T00:17:51.193Z,8.70
2023-03-21T00:24:55.259Z,8.70
2023-03-21T00:28:17.002Z,8.70
2023-03-21T00:31:38.592Z,8.70
2023-03-21T00:35:26.139Z,8.70
2023-03-21T00:38:43.342Z,8.70
2023-03-21T00:42:04.978Z,8.70
2023-03-21T00:45:26.752Z,8.70
2023-03-21T00:48:48.324Z,8.70
2023-03-21T00:52:30.628Z,8.70
2023-03-21T00:55:52.814Z,8.70
2023-03-21T00:59:14.386Z,8.70
2023-03-21T01:02:36.212Z,8.70
2023-03-21T01:05:57.762Z,8.70
2023-03-21T01:09:21.505Z,8.60
2023-03-21T01:12:43.097Z,8.70
2023-03-21T01:16:05.294Z,8.70
2023-03-21T01:19:40.731Z,8.70
2023-03-21T01:23:08.991Z,8.70
2023-03-21T01:26:31.943Z,8.70
2023-03-21T01:29:53.532Z,8.80
2023-03-21T01:33:15.362Z,8.80
2023-03-21T01:36:36.949Z,8.80
2023-03-21T01:39:58.587Z,8.80
2023-03-21T01:43:23.326Z,8.70
2023-03-21T01:46:54.376Z,8.80
2023-03-21T01:50:22.308Z,8.80
2023-03-21T01:53:44.560Z,8.80
2023-03-21T01:57:08.270Z,8.80
2023-03-21T02:00:32.111Z,8.80
2023-03-21T02:03:53.976Z,8.70
2023-03-21T02:07:16.360Z,8.70
2023-03-21T02:10:37.973Z,8.70
2023-03-21T02:14:06.780Z,8.70
2023-03-21T02:17:33.388Z,8.70
2023-03-21T02:21:07.766Z,8.60
2023-03-21T02:25:01.323Z,8.60
2023-03-21T02:28:28.077Z,8.60
2023-03-21T02:31:53.126Z,8.60
2023-03-21T02:35:22.219Z,8.60
2023-03-21T02:38:49.005Z,8.60
2023-03-21T02:42:14.022Z,8.60
2023-03-21T02:45:38.689Z,8.60
2023-03-21T02:49:02.487Z,8.60
2023-03-21T02:52:37.952Z,8.60
2023-03-21T02:56:02.785Z,8.60
2023-03-21T02:59:24.705Z,8.60
2023-03-21T03:02:47.536Z,8.60
2023-03-21T03:06:16.534Z,8.50
2023-03-21T03:09:43.246Z,8.60
2023-03-21T03:13:11.534Z,8.50
2023-03-21T03:16:37.656Z,8.50
2023-03-21T03:20:15.481Z,8.50
2023-03-21T03:23:41.773Z,8.40
2023-03-21T03:27:06.476Z,8.40
2023-03-21T03:30:39.296Z,8.40
2023-03-21T03:34:05.876Z,8.40
2023-03-21T03:37:29.631Z,8.50
2023-03-21T03:40:53.021Z,8.50
2023-03-21T03:44:14.647Z,8.50
2023-03-21T03:47:50.780Z,8.50
2023-03-21T03:51:20.609Z,8.50
2023-03-21T03:54:43.409Z,8.50
2023-03-21T03:58:13.152Z,8.50
2023-03-21T04:01:41.423Z,8.50
2023-03-21T04:05:04.864Z,8.50
2023-03-21T04:08:26.544Z,8.50
2023-03-21T04:11:48.340Z,8.40
2023-03-21T04:15:11.293Z,8.40
2023-03-21T04:18:32.995Z,8.50
2023-03-21T04:21:55.934Z,8.50
2023-03-21T04:25:30.604Z,8.40
2023-03-21T04:28:54.248Z,8.40
2023-03-21T04:32:15.896Z,8.40
2023-03-21T04:35:37.850Z,8.40
2023-03-21T04:39:00.843Z,8.30
2023-03-21T04:42:22.451Z,8.30
2023-03-21T04:45:44.378Z,8.20
2023-03-21T04:49:06.285Z,8.10
2023-03-21T04:52:27.852Z,8.10
2023-03-21T04:55:54.139Z,7.90
2023-03-21T04:59:16.904Z,7.80
2023-03-21T05:02:38.682Z,7.70
2023-03-21T05:06:00.261Z,7.70
2023-03-21T05:09:22.282Z,7.60
2023-03-21T05:12:45.258Z,7.50
2023-03-21T05:16:07.679Z,7.50
2023-03-21T05:19:30.364Z,7.50
2023-03-21T05:22:53.681Z,7.50
2023-03-21T05:26:15.272Z,7.50
2023-03-21T05:29:38.219Z,7.50
2023-03-21T05:32:59.902Z,7.40
2023-03-21T05:36:21.485Z,7.40
2023-03-21T05:39:43.098Z,7.30
2023-03-21T05:43:07.052Z,7.30
2023-03-21T05:46:32.365Z,7.30
2023-03-21T05:49:54.040Z,7.40
2023-03-21T05:53:15.652Z,7.50
2023-03-21T05:56:37.245Z,7.60
2023-03-21T05:59:58.804Z,7.70
2023-03-21T06:03:21.831Z,7.80
2023-03-21T06:06:43.674Z,7.90
2023-03-21T06:10:05.695Z,7.90
2023-03-21T06:13:27.439Z,8.10
2023-03-21T06:16:49.046Z,8.20
2023-03-21T06:20:12.848Z,8.30
2023-03-21T06:23:34.434Z,8.40
2023-03-21T06:26:56.052Z,8.60
2023-03-21T06:30:17.886Z,8.70
2023-03-21T06:33:39.468Z,8.90
2023-03-21T06:37:02.487Z,9.10
2023-03-21T06:40:24.088Z,9.20
2023-03-21T06:43:45.879Z,9.20
2023-03-21T06:47:07.622Z,9.30
2023-03-21T06:50:29.281Z,9.40
2023-03-21T06:53:52.233Z,9.50
2023-03-21T06:57:13.821Z,9.60
2023-03-21T07:00:35.473Z,9.60
2023-03-21T07:03:57.556Z,9.80
2023-03-21T07:07:19.147Z,10.00
2023-03-21T07:10:44.283Z,10.30
2023-03-21T07:14:06.818Z,10.50
2023-03-21T07:17:28.547Z,10.60
2023-03-21T07:20:50.688Z,10.80
2023-03-21T07:24:12.263Z,10.90
2023-03-21T07:27:35.185Z,11.20
2023-03-21T07:30:58.030Z,11.40
2023-03-21T07:34:19.599Z,11.80
2023-03-21T07:37:41.544Z,12.50
2023-03-21T07:41:03.165Z,13.40
2023-03-21T07:44:26.895Z,14.20
2023-03-21T07:47:48.513Z,14.40
2023-03-21T07:51:10.208Z,15.30
2023-03-21T07:57:53.885Z,18.00
2023-03-21T08:01:16.863Z,19.10
2023-03-21T08:04:38.440Z,19.80
2023-03-21T08:08:00.253Z,19.20
2023-03-21T08:11:22.053Z,20.10
2023-03-21T08:14:43.675Z,20.40
2023-03-21T08:18:06.734Z,20.40
2023-03-21T08:21:28.317Z,20.60
2023-03-21T08:24:49.928Z,21.40
2023-03-21T08:28:11.636Z,20.20
2023-03-21T08:31:33.218Z,19.30
2023-03-21T08:34:57.794Z,20.10
2023-03-21T08:38:19.384Z,20.40
2023-03-21T08:41:41.003Z,20.40
2023-03-21T08:45:02.615Z,20.40
2023-03-21T08:48:24.223Z,19.70
2023-03-21T08:51:47.355Z,19.50
2023-03-21T08:55:09.189Z,20.20
2023-03-21T08:58:30.766Z,21.30
2023-03-21T09:01:52.391Z,21.90
2023-03-21T09:05:14.037Z,22.20
2023-03-21T09:08:37.037Z,22.40
2023-03-21T09:11:58.648Z,21.90
2023-03-21T09:15:20.674Z,21.50
2023-03-21T09:18:42.263Z,21.80
2023-03-21T09:22:03.934Z,21.50
2023-03-21T09:25:27.000Z,21.20
2023-03-21T09:28:48.853Z,21.50
2023-03-21T09:32:10.551Z,20.70
2023-03-21T09:35:32.504Z,20.40
2023-03-21T09:38:54.340Z,20.60
2023-03-21T09:42:20.847Z,20.40
2023-03-21T09:45:46.915Z,20.40
2023-03-21T09:49:11.519Z,20.60
2023-03-21T09:52:37.716Z,20.80
2023-03-21T09:55:59.721Z,21.20
2023-03-21T09:59:29.060Z,21.10
2023-03-21T10:02:51.572Z,21.20
2023-03-21T10:06:14.180Z,21.00
2023-03-21T10:09:35.806Z,20.90
2023-03-21T10:12:57.395Z,20.40
2023-03-21T10:16:23.321Z,20.10
2023-03-21T10:19:46.295Z,19.60
2023-03-21T10:23:08.837Z,19.40
2023-03-21T10:26:30.422Z,19.30
2023-03-21T10:29:52.019Z,19.00
2023-03-21T10:33:16.533Z,18.90
2023-03-21T10:36:38.263Z,18.40
2023-03-21T10:39:59.845Z,18.30
2023-03-21T10:43:32.228Z,18.00
2023-03-21T10:46:54.774Z,17.90
2023-03-21T10:50:19.154Z,17.80
2023-03-21T10:53:45.192Z,18.00
2023-03-21T10:57:08.767Z,18.00
2023-03-21T11:00:34.628Z,17.60
2023-03-21T11:03:57.731Z,17.40
2023-03-21T11:07:20.720Z,17.50
2023-03-21T11:10:50.129Z,17.50
2023-03-21T11:14:24.523Z,17.50
2023-03-21T11:17:46.960Z,17.70
2023-03-21T11:21:09.709Z,17.90
2023-03-21T11:24:33.253Z,17.90
2023-03-21T11:27:55.552Z,18.00
2023-03-21T11:31:17.483Z,17.90
2023-03-21T11:34:43.385Z,17.70
2023-03-21T11:38:05.979Z,17.90
2023-03-21T11:41:30.625Z,17.90
2023-03-21T11:44:57.601Z,17.80
2023-03-21T11:48:19.178Z,18.00
2023-03-21T11:51:44.769Z,17.90
2023-03-21T11:55:13.055Z,17.90
2023-03-21T11:58:44.053Z,17.70
2023-03-21T12:02:24.820Z,17.50
2023-03-21T12:05:52.261Z,17.50
2023-03-21T12:09:28.523Z,17.30
2023-03-21T12:12:54.216Z,17.30
2023-03-21T12:16:26.453Z,17.40
2023-03-21T12:20:03.109Z,17.30
2023-03-21T12:23:30.379Z,17.30
2023-03-21T12:26:57.442Z,17.40
2023-03-21T12:30:27.537Z,17.30
2023-03-21T12:33:57.786Z,17.40
2023-03-21T12:37:24.537Z,17.40
2023-03-21T12:40:55.081Z,17.40
2023-03-21T12:44:18.376Z,17.40
2023-03-21T12:47:41.052Z,17.50
2023-03-21T12:51:05.489Z,17.50
2023-03-21T12:54:29.804Z,17.20
2023-03-21T12:57:57.888Z,17.40
2023-03-21T13:01:21.357Z,17.70
2023-03-21T13:04:45.616Z,17.90
2023-03-21T13:08:11.782Z,17.90
2023-03-21T13:11:33.838Z,17.90
2023-03-21T13:15:02.648Z,17.90
2023-03-21T13:18:49.155Z,18.00
2023-03-21T13:22:15.708Z,18.00
2023-03-21T13:25:41.233Z,18.00
2023-03-21T13:29:12.105Z,17.80
2023-03-21T13:32:34.740Z,18.10
2023-03-21T13:35:59.155Z,18.20
2023-03-21T13:39:24.511Z,18.30
2023-03-21T13:42:51.765Z,18.50
2023-03-21T13:46:14.327Z,18.50
2023-03-21T13:49:36.823Z,18.50
2023-03-21T13:53:18.157Z,18.30
2023-03-21T13:56:49.381Z,18.20
2023-03-21T14:00:18.143Z,18.40
2023-03-21T14:03:39.923Z,18.20
2023-03-21T14:07:03.041Z,18.20
2023-03-21T14:10:27.941Z,18.20
2023-03-21T14:13:51.571Z,18.00
2023-03-21T14:17:15.480Z,17.80
2023-03-21T14:20:37.938Z,17.70
2023-03-21T14:24:01.286Z,17.70
2023-03-21T14:27:23.063Z,17.60
2023-03-21T14:30:45.174Z,17.50
2023-03-21T14:34:10.125Z,17.40
2023-03-21T14:37:33.552Z,17.50
2023-03-21T14:40:55.726Z,17.50
2023-03-21T14:44:18.946Z,17.50
2023-03-21T14:47:40.580Z,17.50
2023-03-21T14:51:04.868Z,17.50
2023-03-21T14:54:26.841Z,17.40
2023-03-21T14:57:48.889Z,17.30
2023-03-21T15:01:13.905Z,17.30
2023-03-21T15:04:35.590Z,17.30
2023-03-21T15:07:59.249Z,17.20
2023-03-21T15:11:28.585Z,17.20
2023-03-21T15:14:50.322Z,17.10
2023-03-21T15:18:14.721Z,17.10
2023-03-21T15:21:38.077Z,17.10
2023-03-21T15:25:02.248Z,17.20
2023-03-21T15:28:24.959Z,17.10
2023-03-21T15:31:47.541Z,17.20
2023-03-21T15:35:13.826Z,17.30
2023-03-21T15:38:36.976Z,17.40
2023-03-21T15:42:01.413Z,17.40
2023-03-21T15:45:23.814Z,17.40
2023-03-21T15:48:45.402Z,17.30
2023-03-21T15:52:11.138Z,17.10
2023-03-21T15:55:39.331Z,16.90
2023-03-21T15:59:03.925Z,16.70
2023-03-21T16:02:29.283Z,16.50
2023-03-21T16:06:04.387Z,16.40
2023-03-21T16:09:26.100Z,16.30
2023-03-21T16:12:48.752Z,16.00
2023-03-21T16:16:15.373Z,15.70
2023-03-21T16:19:37.034Z,15.40
2023-03-21T16:22:58.712Z,15.20
2023-03-21T16:26:21.112Z,15.00
2023-03-21T16:29:42.702Z,14.90
2023-03-21T16:33:05.674Z,14.80
2023-03-21T16:36:29.074Z,14.70
2023-03-21T16:39:50.753Z,14.60
2023-03-21T16:43:12.361Z,14.50
2023-03-21T16:46:33.950Z,14.50
2023-03-21T16:49:56.902Z,14.30
2023-03-21T16:53:18.509Z,14.30
2023-03-21T16:56:42.073Z,14.20
2023-03-21T17:00:04.166Z,14.10
2023-03-21T17:03:25.808Z,14.00
2023-03-21T17:06:49.889Z,13.90
2023-03-21T17:10:14.993Z,13.90
2023-03-21T17:13:36.589Z,13.80
2023-03-21T17:16:58.257Z,13.80
2023-03-21T17:20:20.823Z,13.70
2023-03-21T17:23:43.826Z,13.60
2023-03-21T17:27:07.903Z,13.50
2023-03-21T17:30:30.951Z,13.50
2023-03-21T17:33:52.611Z,13.40
2023-03-21T17:37:14.429Z,13.40
2023-03-21T17:40:37.769Z,13.40
2023-03-21T17:43:59.470Z,13.40
2023-03-21T17:47:21.108Z,13.30
2023-03-21T17:50:42.722Z,13.30
2023-03-21T17:54:04.514Z,13.20
2023-03-21T17:57:27.458Z,13.20
2023-03-21T18:00:49.038Z,13.20
2023-03-21T18:04:10.622Z,13.10
2023-03-21T18:08:06.049Z,13.10
2023-03-21T18:11:14.421Z,13.00
2023-03-21T18:14:40.543Z,13.00
2023-03-21T18:18:02.391Z,13.00
2023-03-21T18:21:26.223Z,12.90
2023-03-21T18:24:50.334Z,12.90
2023-03-21T18:28:12.931Z,12.90
2023-03-21T18:31:36.094Z,12.90
2023-03-21T18:34:57.811Z,12.90
2023-03-21T18:38:19.517Z,12.80
2023-03-21T18:41:41.094Z,12.80
2023-03-21T18:45:03.110Z,12.70
2023-03-21T18:48:26.167Z,12.70
2023-03-21T18:51:47.817Z,12.70
2023-03-21T18:55:09.758Z,12.70
2023-03-21T18:58:31.390Z,12.70
2023-03-21T19:01:53.030Z,12.70
2023-03-21T19:05:18.113Z,12.70
2023-03-21T19:08:39.770Z,12.60
2023-03-21T19:12:01.505Z,12.60
2023-03-21T19:15:23.715Z,12.50
2023-03-21T19:18:54.343Z,12.50
2023-03-21T19:22:17.899Z,12.50
2023-03-21T19:25:39.675Z,12.40
2023-03-21T19:29:01.368Z,12.40
2023-03-21T19:32:22.961Z,12.30
2023-03-21T19:35:46.375Z,12.30
2023-03-21T19:39:09.600Z,12.30
2023-03-21T19:42:31.216Z,12.20
2023-03-21T19:45:53.042Z,12.30
2023-03-21T19:49:15.223Z,12.30
2023-03-21T19:52:37.050Z,12.20
2023-03-21T19:56:03.704Z,12.10
2023-03-21T19:59:25.663Z,12.10
2023-03-21T20:02:47.428Z,12.10
2023-03-21T20:06:09.779Z,12.00
2023-03-21T20:09:50.727Z,12.00
2023-03-21T20:13:14.347Z,12.00
2023-03-21T20:16:36.203Z,11.90
2023-03-21T20:19:58.048Z,11.80
2023-03-21T20:23:29.116Z,11.80
2023-03-21T20:26:50.848Z,11.80
2023-03-21T20:30:34.975Z,11.80
2023-03-21T20:33:57.977Z,11.70
2023-03-21T20:37:23.995Z,11.70
2023-03-21T20:40:45.792Z,11.70
2023-03-21T20:44:41.739Z,11.70
2023-03-21T20:47:49.369Z,11.70
2023-03-21T20:54:54.069Z,11.60
2023-03-21T20:58:36.519Z,11.60
2023-03-21T21:01:57.804Z,11.60
2023-03-21T21:05:28.039Z,11.60
2023-03-21T21:08:56.046Z,11.60
2023-03-21T21:12:17.806Z,11.60
2023-03-21T21:15:47.881Z,11.60
2023-03-21T21:19:09.569Z,11.60
2023-03-21T21:22:31.583Z,11.50
2023-03-21T21:25:54.890Z,11.50
2023-03-21T21:29:16.844Z,11.40
2023-03-21T21:32:38.828Z,11.40
2023-03-21T21:36:00.442Z,11.40
2023-03-21T21:39:22.051Z,11.40
2023-03-21T21:42:44.960Z,11.30
2023-03-21T21:46:06.760Z,11.40
2023-03-21T21:49:28.340Z,11.30
2023-03-21T21:52:49.928Z,11.40
2023-03-21T21:56:11.589Z,11.40
2023-03-21T21:59:34.503Z,11.30
2023-03-21T22:02:56.554Z,11.30
2023-03-21T22:06:18.158Z,11.30
2023-03-21T22:09:39.955Z,11.30
2023-03-21T22:13:01.591Z,11.30
2023-03-21T22:16:24.712Z,11.30
2023-03-21T22:20:02.585Z,11.30
2023-03-21T22:23:26.548Z,11.30
2023-03-21T22:26:48.260Z,11.30
2023-03-21T22:30:11.534Z,11.30
2023-03-21T22:33:34.472Z,11.40
2023-03-21T22:36:56.053Z,11.40
2023-03-21T22:40:17.704Z,11.40
2023-03-21T22:43:39.305Z,11.40
2023-03-21T22:47:01.209Z,11.40
2023-03-21T22:50:24.153Z,11.30
2023-03-21T22:53:47.579Z,11.30
2023-03-21T22:57:09.164Z,11.30
2023-03-21T23:00:30.832Z,11.30
2023-03-21T23:03:52.473Z,11.20
2023-03-21T23:07:15.474Z,11.10
2023-03-21T23:10:38.042Z,10.90
2023-03-21T23:14:07.560Z,10.80
2023-03-21T23:17:29.950Z,10.70
2023-03-21T23:20:51.564Z,10.60
2023-03-21T23:24:14.963Z,10.50
2023-03-21T23:27:36.614Z,10.50
2023-03-21T23:30:58.604Z,10.40
2023-03-21T23:34:20.190Z,10.50
2023-03-21T23:37:41.957Z,10.50
2023-03-21T23:41:07.634Z,10.50
2023-03-21T23:44:29.208Z,10.50
2023-03-21T23:47:50.826Z,10.50
2023-03-21T23:51:13.336Z,10.50
2023-03-21T23:54:35.039Z,10.40
2023-03-21T23:57:57.994Z,10.30
